Time;durP1;ratioP1;P1;durP2;ratioP2;P2;SDS_P1;SDS_P2;PMS_P1;PMS_P2;Temp;Humidity;BMP_temperature;BMP_pressure;BME280_temperature;BME280_humidity;BME280_pressure;Samples;Min_cycle;Max_cycle;Signal;HPM_P1;HPM_P2
2021/12/03 00:00:39;;;;;;;9.52;6.32;;;2.20;99.90;;;;;;5054428;28;20033;-60
2021/12/03 00:03:06;;;;;;;9.38;6.93;;;1.90;99.90;;;;;;5041529;28;20021;-62
2021/12/03 00:05:32;;;;;;;8.75;5.68;;;2.20;99.90;;;;;;5047604;28;20029;-61
2021/12/03 00:07:58;;;;;;;9.63;5.65;;;2.00;99.90;;;;;;5049712;28;20431;-62
2021/12/03 00:10:26;;;;;;;8.77;5.60;;;2.70;99.90;;;;;;5047240;28;20036;-62
2021/12/03 00:12:54;;;;;;;6.65;5.22;;;2.00;99.90;;;;;;5050195;28;20108;-62
2021/12/03 00:15:23;;;;;;;9.05;5.95;;;1.50;99.90;;;;;;5051320;28;20021;-62
2021/12/03 00:17:50;;;;;;;7.47;5.63;;;1.90;99.90;;;;;;5043334;28;20113;-62
2021/12/03 00:20:17;;;;;;;9.07;5.65;;;1.80;99.90;;;;;;5039250;28;20033;-61
2021/12/03 00:22:48;;;;;;;8.27;6.00;;;1.90;99.90;;;;;;5034445;28;20091;-61
2021/12/03 00:25:14;;;;;;;11.25;6.57;;;1.40;99.90;;;;;;5051037;28;20467;-62
2021/12/03 00:27:41;;;;;;;9.43;5.57;;;1.90;99.90;;;;;;5053048;28;20549;-62
2021/12/03 00:30:10;;;;;;;8.35;5.45;;;1.60;99.90;;;;;;5051446;28;20514;-62
2021/12/03 00:32:36;;;;;;;8.23;5.70;;;1.70;99.90;;;;;;5052365;28;20029;-62
2021/12/03 00:35:04;;;;;;;6.78;5.85;;;1.40;99.90;;;;;;5051433;28;20033;-61
2021/12/03 00:37:30;;;;;;;9.85;6.47;;;1.40;99.90;;;;;;5051524;28;20108;-62
2021/12/03 00:39:55;;;;;;;9.13;5.97;;;2.20;99.90;;;;;;5052990;28;20102;-62
2021/12/03 00:42:21;;;;;;;7.13;6.40;;;1.50;99.90;;;;;;5052508;28;20617;-62
2021/12/03 00:44:52;;;;;;;10.65;6.18;;;1.80;99.90;;;;;;5052920;28;20036;-62
2021/12/03 00:47:18;;;;;;;8.02;6.07;;;1.80;99.90;;;;;;5050348;28;20067;-62
2021/12/03 00:49:44;;;;;;;7.85;6.30;;;1.90;99.90;;;;;;5049792;28;20451;-62
2021/12/03 00:52:10;;;;;;;7.22;6.07;;;1.90;99.90;;;;;;5051931;28;20104;-62
2021/12/03 00:54:36;;;;;;;10.25;6.35;;;;;;;;;;5039255;28;20426;-61
2021/12/03 00:57:02;;;;;;;7.20;5.47;;;2.40;99.90;;;;;;5030092;28;20376;-62
2021/12/03 00:59:28;;;;;;;8.50;6.45;;;2.00;99.90;;;;;;5031836;28;20030;-62
2021/12/03 01:01:54;;;;;;;10.60;5.95;;;1.60;99.90;;;;;;5050166;28;20082;-62
2021/12/03 01:04:20;;;;;;;7.70;5.50;;;2.10;99.90;;;;;;5050686;28;20072;-62
2021/12/03 01:06:46;;;;;;;6.50;5.68;;;1.80;99.90;;;;;;5053117;28;20029;-61
2021/12/03 01:09:11;;;;;;;11.05;5.80;;;1.90;99.90;;;;;;5055441;28;20036;-63
2021/12/03 01:11:38;;;;;;;9.40;5.90;;;2.00;99.90;;;;;;5057205;28;20402;-62
2021/12/03 01:14:04;;;;;;;7.18;5.45;;;1.20;99.90;;;;;;5055509;28;20029;-61
2021/12/03 01:16:31;;;;;;;11.23;5.93;;;2.20;99.90;;;;;;5053812;28;20111;-61
2021/12/03 01:18:57;;;;;;;10.85;6.30;;;1.90;99.90;;;;;;5053800;28;20032;-61
2021/12/03 01:21:23;;;;;;;8.75;6.18;;;2.60;99.90;;;;;;5054574;28;20021;-61
2021/12/03 01:23:50;;;;;;;9.55;6.55;;;1.60;99.90;;;;;;5051038;28;20018;-61
2021/12/03 01:26:16;;;;;;;11.05;6.65;;;1.50;99.90;;;;;;5052828;28;20412;-61
2021/12/03 01:28:43;;;;;;;7.80;6.28;;;2.00;99.90;;;;;;5054691;28;20024;-61
2021/12/03 01:31:09;;;;;;;7.95;5.88;;;1.50;99.90;;;;;;5048872;28;20031;-62
2021/12/03 01:33:35;;;;;;;9.82;6.50;;;;;;;;;;5053673;28;20031;-60
2021/12/03 01:36:01;;;;;;;8.02;6.00;;;2.30;99.90;;;;;;5053320;28;20041;-60
2021/12/03 01:38:28;;;;;;;10.63;6.20;;;1.40;99.90;;;;;;5050184;28;20029;-61
2021/12/03 01:40:54;;;;;;;8.13;5.68;;;1.80;99.90;;;;;;5054060;28;20502;-61
2021/12/03 01:43:26;;;;;;;9.88;5.93;;;1.80;99.90;;;;;;5053198;28;20032;-62
2021/12/03 01:45:56;;;;;;;9.30;6.18;;;2.00;99.90;;;;;;5052698;28;20033;-62
2021/12/03 01:48:22;;;;;;;8.13;5.90;;;1.80;99.90;;;;;;5053888;28;20025;-62
2021/12/03 01:50:49;;;;;;;7.85;5.90;;;2.00;99.90;;;;;;5049795;28;20052;-61
2021/12/03 01:53:17;;;;;;;13.43;6.40;;;2.00;99.90;;;;;;5053789;28;20024;-61
2021/12/03 01:55:45;;;;;;;9.75;6.05;;;2.30;99.90;;;;;;5052232;28;20071;-62
2021/12/03 01:58:11;;;;;;;6.90;6.07;;;1.50;99.90;;;;;;5053009;28;20099;-62
2021/12/03 02:00:58;;;;;;;6.72;5.90;;;1.90;99.90;;;;;;5053340;28;20052;-62
2021/12/03 02:03:29;;;;;;;7.82;5.75;;;2.00;99.90;;;;;;5049582;28;20036;-61
2021/12/03 02:05:57;;;;;;;9.82;6.20;;;2.40;99.90;;;;;;5052847;28;20037;-62
2021/12/03 02:08:23;;;;;;;10.73;6.50;;;2.00;99.90;;;;;;5052898;28;20025;-62
2021/12/03 02:10:49;;;;;;;9.70;6.47;;;1.70;99.90;;;;;;5033848;28;20472;-62
2021/12/03 02:13:15;;;;;;;8.73;6.10;;;1.90;99.90;;;;;;5033626;28;20067;-61
2021/12/03 02:15:43;;;;;;;9.27;6.32;;;2.00;99.90;;;;;;5035805;28;20470;-61
2021/12/03 02:18:11;;;;;;;9.50;7.00;;;1.50;99.90;;;;;;5052226;28;20044;-62
2021/12/03 02:20:57;;;;;;;7.85;6.38;;;1.90;99.90;;;;;;5053504;28;20025;-62
2021/12/03 02:23:23;;;;;;;8.73;6.53;;;2.50;99.90;;;;;;5052744;28;20112;-62
2021/12/03 02:25:50;;;;;;;13.32;6.75;;;2.40;99.90;;;;;;5052639;28;20139;-63
2021/12/03 02:28:17;;;;;;;11.05;6.85;;;2.00;99.90;;;;;;5048436;28;20113;-62
2021/12/03 02:30:44;;;;;;;10.48;7.25;;;1.80;99.90;;;;;;5035156;28;20033;-62
2021/12/03 02:33:11;;;;;;;8.35;7.25;;;1.70;99.90;;;;;;5033520;28;20602;-61
2021/12/03 02:35:40;;;;;;;10.98;6.72;;;2.40;99.90;;;;;;5046044;28;20516;-61
2021/12/03 02:38:10;;;;;;;7.90;6.43;;;1.60;99.90;;;;;;5059099;28;20530;-61
2021/12/03 02:40:36;;;;;;;13.57;7.13;;;1.30;99.90;;;;;;5053244;28;20155;-61
2021/12/03 02:43:02;;;;;;;10.50;6.82;;;2.50;99.90;;;;;;5052974;28;20490;-61
2021/12/03 02:45:28;;;;;;;10.77;6.15;;;1.30;99.90;;;;;;5052400;28;20070;-62
2021/12/03 02:47:54;;;;;;;8.68;6.50;;;1.70;99.90;;;;;;5052295;28;20065;-61
2021/12/03 02:50:20;;;;;;;12.48;6.18;;;1.60;99.90;;;;;;5053108;28;20029;-62
2021/12/03 02:52:48;;;;;;;8.35;6.70;;;1.40;99.90;;;;;;5052952;28;20286;-61
2021/12/03 02:55:15;;;;;;;8.38;7.03;;;1.90;99.90;;;;;;5050105;28;20052;-62
2021/12/03 02:57:41;;;;;;;7.60;6.25;;;2.00;99.90;;;;;;5070471;28;20051;-62
2021/12/03 03:00:10;;;;;;;9.88;6.40;;;1.30;99.90;;;;;;5065973;28;20095;-62
2021/12/03 03:02:36;;;;;;;9.85;6.70;;;1.90;99.90;;;;;;5052653;28;20112;-62
2021/12/03 03:05:03;;;;;;;10.50;6.35;;;1.70;99.90;;;;;;5052570;28;20154;-62
2021/12/03 03:07:30;;;;;;;10.85;6.78;;;1.60;99.90;;;;;;5049740;28;20033;-62
2021/12/03 03:09:56;;;;;;;8.82;6.63;;;1.60;99.90;;;;;;5053194;28;20086;-62
2021/12/03 03:12:22;;;;;;;11.45;6.50;;;1.40;99.90;;;;;;5051644;28;20025;-62
2021/12/03 03:14:53;;;;;;;8.30;6.40;;;1.70;99.90;;;;;;5051939;28;20025;-62
2021/12/03 03:17:21;;;;;;;9.07;6.43;;;1.40;99.90;;;;;;5052330;28;20528;-62
2021/12/03 03:19:48;;;;;;;8.27;6.43;;;1.40;99.90;;;;;;5051796;28;20123;-62
2021/12/03 03:22:14;;;;;;;9.63;7.00;;;2.10;99.90;;;;;;5053196;28;20047;-62
2021/12/03 03:24:40;;;;;;;8.77;6.78;;;1.20;99.90;;;;;;5051896;28;20110;-62
2021/12/03 03:27:07;;;;;;;10.15;7.32;;;1.80;99.90;;;;;;5051702;28;20490;-62
2021/12/03 03:29:32;;;;;;;9.65;7.15;;;1.30;99.90;;;;;;5052035;28;20399;-61
2021/12/03 03:31:58;;;;;;;8.63;7.30;;;1.50;99.90;;;;;;5047792;28;20026;-62
2021/12/03 03:34:24;;;;;;;9.30;6.90;;;1.10;99.90;;;;;;5051540;28;20363;-61
2021/12/03 03:36:49;;;;;;;9.95;7.13;;;1.00;99.90;;;;;;5051981;28;20028;-62
2021/12/03 03:39:15;;;;;;;13.27;7.32;;;1.00;99.90;;;;;;5051209;28;20029;-62
2021/12/03 03:41:41;;;;;;;9.57;7.18;;;1.50;99.90;;;;;;5051902;28;20029;-62
2021/12/03 03:44:08;;;;;;;13.50;7.30;;;1.20;99.90;;;;;;5052114;28;20105;-63
2021/12/03 03:46:34;;;;;;;11.07;7.13;;;1.40;99.90;;;;;;5047084;28;20047;-62
2021/12/03 03:49:00;;;;;;;9.60;7.20;;;;;;;;;;5051946;28;20024;-62
2021/12/03 03:51:27;;;;;;;12.02;7.05;;;2.10;99.90;;;;;;5051074;28;20090;-62
2021/12/03 03:53:52;;;;;;;9.30;7.20;;;1.20;99.90;;;;;;5051824;28;20507;-62
2021/12/03 03:56:18;;;;;;;11.30;7.35;;;1.80;99.90;;;;;;5051243;28;20033;-61
2021/12/03 03:58:44;;;;;;;10.13;7.15;;;1.70;99.90;;;;;;5051016;28;20485;-62
2021/12/03 04:01:11;;;;;;;10.63;7.88;;;1.50;99.90;;;;;;5051565;28;20024;-61
2021/12/03 04:03:37;;;;;;;10.43;7.25;;;1.60;99.90;;;;;;5051181;28;20071;-62
2021/12/03 04:06:02;;;;;;;9.25;6.75;;;1.30;99.90;;;;;;5050998;28;20025;-61
2021/12/03 04:08:29;;;;;;;10.55;7.25;;;1.60;99.90;;;;;;5051393;28;20061;-62
2021/12/03 04:10:56;;;;;;;11.02;6.75;;;1.50;99.90;;;;;;5047303;28;20067;-62
2021/12/03 04:13:22;;;;;;;9.32;6.93;;;1.80;99.90;;;;;;5033806;28;20029;-62
2021/12/03 04:15:48;;;;;;;13.35;7.63;;;1.70;99.90;;;;;;5050808;28;20479;-63
2021/12/03 04:18:14;;;;;;;8.75;7.05;;;1.10;99.90;;;;;;5050597;28;20365;-62
2021/12/03 04:20:40;;;;;;;9.13;7.47;;;1.40;99.90;;;;;;5051475;28;20111;-62
2021/12/03 04:23:06;;;;;;;11.05;7.55;;;1.70;99.90;;;;;;5047794;28;20032;-61
2021/12/03 04:25:34;;;;;;;10.23;7.30;;;2.20;99.90;;;;;;5050097;28;20031;-62
2021/12/03 04:27:59;;;;;;;10.57;7.40;;;1.50;99.90;;;;;;5051577;28;20032;-62
2021/12/03 04:30:28;;;;;;;12.07;7.45;;;1.00;99.90;;;;;;5050921;28;20085;-62
2021/12/03 04:32:55;;;;;;;8.90;7.05;;;1.90;99.90;;;;;;5049866;28;20390;-61
2021/12/03 04:35:21;;;;;;;9.27;7.35;;;;;;;;;;5047157;28;20037;-62
2021/12/03 04:37:47;;;;;;;10.55;8.10;;;1.60;99.90;;;;;;5051039;28;20084;-62
2021/12/03 04:40:15;;;;;;;10.95;7.22;;;1.80;99.90;;;;;;5051843;28;20147;-61
2021/12/03 04:42:41;;;;;;;10.57;8.45;;;1.60;99.90;;;;;;5054832;28;20020;-61
2021/12/03 04:45:09;;;;;;;10.40;6.65;;;1.50;99.90;;;;;;5054651;28;20379;-61
2021/12/03 04:47:35;;;;;;;8.02;6.32;;;2.10;99.90;;;;;;5055970;28;20112;-60
2021/12/03 04:50:03;;;;;;;8.25;6.15;;;1.30;99.90;;;;;;5043606;28;20506;-61
2021/12/03 04:52:29;;;;;;;8.30;6.22;;;1.80;99.90;;;;;;5052225;28;20025;-61
2021/12/03 04:54:54;;;;;;;10.07;6.40;;;1.70;99.90;;;;;;5054317;28;20051;-60
2021/12/03 04:57:21;;;;;;;7.18;5.82;;;;;;;;;;5055464;28;20021;-61
2021/12/03 04:59:46;;;;;;;9.40;5.70;;;2.40;99.90;;;;;;5055474;28;20494;-61
2021/12/03 05:02:12;;;;;;;9.20;6.18;;;1.50;99.90;;;;;;5045359;28;20033;-62
2021/12/03 05:04:38;;;;;;;8.10;6.15;;;1.20;99.90;;;;;;5034502;28;20549;-62
2021/12/03 05:09:34;;;;;;;6.50;5.38;;;1.80;99.90;;;;;;5034964;28;20048;-61
2021/12/03 05:12:01;;;;;;;6.80;5.30;;;1.70;99.90;;;;;;5054761;28;20064;-62
2021/12/03 05:14:27;;;;;;;6.70;5.25;;;1.70;99.90;;;;;;5050478;28;20506;-62
2021/12/03 05:16:53;;;;;;;8.20;5.43;;;2.00;99.90;;;;;;5023410;28;20049;-62
2021/12/03 05:19:19;;;;;;;8.88;5.88;;;1.60;99.90;;;;;;5054543;28;20025;-61
2021/12/03 05:21:45;;;;;;;9.35;6.28;;;2.10;99.90;;;;;;5053766;28;20724;-62
2021/12/03 05:24:12;;;;;;;6.07;5.47;;;2.00;99.90;;;;;;5054468;28;20021;-61
2021/12/03 05:26:39;;;;;;;10.50;5.97;;;2.50;99.90;;;;;;5038719;28;20029;-67
2021/12/03 05:29:06;;;;;;;8.32;5.78;;;2.70;99.90;;;;;;5052187;28;20029;-67
2021/12/03 05:31:33;;;;;;;12.25;6.07;;;1.80;99.90;;;;;;5050102;28;20079;-66
2021/12/03 05:33:59;;;;;;;7.38;5.63;;;1.20;99.90;;;;;;5020288;28;20025;-66
2021/12/03 05:36:25;;;;;;;7.97;6.03;;;1.70;99.90;;;;;;5053012;28;20031;-66
2021/12/03 05:38:51;;;;;;;8.85;5.85;;;1.50;99.90;;;;;;5054160;28;20463;-66
2021/12/03 05:41:17;;;;;;;7.15;5.90;;;1.50;99.90;;;;;;5050900;28;20033;-67
2021/12/03 05:43:43;;;;;;;7.25;6.32;;;2.10;99.90;;;;;;5050162;28;20028;-67
2021/12/03 05:46:08;;;;;;;7.75;6.32;;;1.50;99.90;;;;;;5033695;28;20120;-67
2021/12/03 05:48:34;;;;;;;10.85;6.68;;;2.00;99.90;;;;;;5050821;28;20572;-67
2021/12/03 05:51:00;;;;;;;9.02;6.18;;;1.90;99.90;;;;;;5054308;28;20490;-67
2021/12/03 05:53:26;;;;;;;10.85;6.78;;;2.00;99.90;;;;;;5035816;28;20029;-66
2021/12/03 05:55:52;;;;;;;8.98;6.38;;;1.70;99.90;;;;;;5053055;28;20529;-68
2021/12/03 05:58:18;;;;;;;8.35;6.55;;;2.10;99.90;;;;;;5047037;28;20083;-68
2021/12/03 06:00:44;;;;;;;9.02;6.63;;;2.00;99.90;;;;;;5044879;28;20483;-67
2021/12/03 06:03:11;;;;;;;11.77;6.78;;;1.70;99.90;;;;;;5053869;28;20554;-66
2021/12/03 06:05:39;;;;;;;10.07;7.50;;;2.10;99.90;;;;;;5053408;28;20029;-67
2021/12/03 06:08:05;;;;;;;11.20;7.25;;;1.90;99.90;;;;;;5052252;28;20036;-69
2021/12/03 06:10:32;;;;;;;11.65;7.18;;;1.70;99.90;;;;;;5054269;28;20372;-68
2021/12/03 06:12:57;;;;;;;10.75;6.50;;;2.30;99.90;;;;;;5052721;28;20122;-68
2021/12/03 06:15:23;;;;;;;11.15;6.63;;;1.70;99.90;;;;;;5052178;28;20037;-68
2021/12/03 06:17:49;;;;;;;12.48;7.57;;;1.90;99.90;;;;;;5053275;28;20052;-68
2021/12/03 06:20:17;;;;;;;7.20;6.38;;;1.80;99.90;;;;;;5045617;28;20109;-68
2021/12/03 06:22:42;;;;;;;7.88;6.20;;;1.80;99.90;;;;;;5033629;28;20164;-69
2021/12/03 06:25:11;;;;;;;11.30;6.60;;;1.60;99.90;;;;;;5032930;28;20093;-70
2021/12/03 06:27:38;;;;;;;8.18;5.75;;;1.80;99.90;;;;;;5047039;28;20037;-70
2021/12/03 06:30:07;;;;;;;13.63;6.07;;;2.10;99.90;;;;;;5053328;28;20368;-70
2021/12/03 06:32:33;;;;;;;8.50;6.15;;;1.70;99.90;;;;;;5052743;28;20083;-69
2021/12/03 06:34:59;;;;;;;12.32;6.53;;;1.60;99.90;;;;;;5049272;28;20025;-69
2021/12/03 06:37:25;;;;;;;10.05;6.63;;;1.90;99.90;;;;;;5053120;28;20045;-69
2021/12/03 06:39:50;;;;;;;7.88;5.82;;;1.80;99.90;;;;;;5052724;28;20029;-69
2021/12/03 06:42:16;;;;;;;10.50;6.50;;;2.20;99.90;;;;;;5052725;28;20033;-68
2021/12/03 06:44:42;;;;;;;8.93;6.13;;;2.90;99.90;;;;;;5052643;28;20029;-70
2021/12/03 06:47:08;;;;;;;9.70;6.93;;;1.80;99.90;;;;;;5052657;28;20124;-67
2021/12/03 06:49:34;;;;;;;10.32;6.55;;;1.80;99.90;;;;;;5054322;28;20017;-67
2021/12/03 06:52:06;;;;;;;9.82;6.03;;;1.70;99.90;;;;;;5051772;28;20028;-69
2021/12/03 06:54:34;;;;;;;;;;;1.70;99.90;;;;;;5033177;28;20029;-67
2021/12/03 06:57:01;;;;;;;10.98;6.75;;;1.60;99.90;;;;;;5033053;28;20392;-68
2021/12/03 06:59:27;;;;;;;14.85;6.32;;;1.60;99.90;;;;;;5037682;28;20021;-65
2021/12/03 07:01:54;;;;;;;10.32;6.38;;;2.10;99.90;;;;;;5052821;28;20562;-67
2021/12/03 07:04:20;;;;;;;7.32;5.78;;;1.00;99.90;;;;;;5044059;28;20068;-66
2021/12/03 07:06:46;;;;;;;9.48;5.93;;;1.40;99.90;;;;;;5047647;28;20116;-67
2021/12/03 07:09:12;;;;;;;8.07;6.15;;;1.20;99.90;;;;;;5052816;28;20462;-66
2021/12/03 07:11:38;;;;;;;8.20;6.05;;;1.60;99.90;;;;;;5050916;28;20032;-66
2021/12/03 07:14:05;;;;;;;9.40;5.95;;;1.10;99.90;;;;;;5037705;28;20037;-66
2021/12/03 07:16:31;;;;;;;8.52;5.85;;;1.50;99.90;;;;;;5031134;28;20032;-67
2021/12/03 07:18:57;;;;;;;11.50;6.28;;;1.30;99.90;;;;;;5038751;28;20025;-68
2021/12/03 07:21:24;;;;;;;7.45;5.63;;;1.30;99.90;;;;;;5036507;28;20503;-62
2021/12/03 07:23:51;;;;;;;10.52;6.93;;;1.20;99.90;;;;;;5032384;28;20541;-62
2021/12/03 07:26:18;;;;;;;7.90;6.18;;;2.40;99.90;;;;;;5041715;28;20033;-62
2021/12/03 07:28:44;;;;;;;10.63;5.95;;;2.70;99.90;;;;;;5052089;28;20033;-61
2021/12/03 07:31:11;;;;;;;12.93;6.10;;;2.10;99.90;;;;;;5051801;28;20807;-64
2021/12/03 07:33:37;;;;;;;9.35;6.07;;;2.20;99.90;;;;;;5051105;28;20496;-64
2021/12/03 07:36:05;;;;;;;9.60;5.80;;;1.60;99.90;;;;;;5051640;28;20025;-64
2021/12/03 07:38:32;;;;;;;10.02;6.07;;;2.20;99.90;;;;;;5056919;28;20024;-64
2021/12/03 07:40:58;;;;;;;7.45;5.05;;;3.50;99.90;;;;;;5059725;28;20535;-65
2021/12/03 07:43:24;;;;;;;8.88;5.57;;;5.90;99.90;;;;;;5053007;28;20467;-65
2021/12/03 07:45:49;;;;;;;6.15;4.20;;;6.10;99.90;;;;;;5050436;28;20151;-65
2021/12/03 07:48:16;;;;;;;7.45;5.53;;;6.60;99.90;;;;;;5052294;28;20031;-65
2021/12/03 07:50:43;;;;;;;4.93;4.40;;;7.60;99.90;;;;;;5051220;28;20029;-65
2021/12/03 07:53:16;;;;;;;67.57;43.50;;;7.90;99.90;;;;;;5051359;28;20040;-65
2021/12/03 07:55:43;;;;;;;8.32;5.10;;;8.20;99.90;;;;;;5051376;28;20021;-66
2021/12/03 07:58:09;;;;;;;5.38;4.28;;;8.10;99.90;;;;;;5050437;28;20024;-65
2021/12/03 08:00:35;;;;;;;5.00;4.50;;;8.50;99.90;;;;;;5050663;28;20013;-65
2021/12/03 08:03:00;;;;;;;5.78;3.92;;;8.50;99.90;;;;;;5055938;28;20029;-65
2021/12/03 08:05:27;;;;;;;4.80;4.30;;;8.40;99.90;;;;;;5059475;28;20064;-65
2021/12/03 08:07:52;;;;;;;4.30;3.70;;;8.30;99.90;;;;;;5053645;28;20025;-65
2021/12/03 08:10:18;;;;;;;4.97;3.83;;;8.00;99.90;;;;;;5051157;28;20039;-64
2021/12/03 08:12:45;;;;;;;4.63;3.85;;;7.40;99.90;;;;;;5050752;28;20390;-65
2021/12/03 08:15:13;;;;;;;4.63;3.40;;;6.60;99.90;;;;;;5049948;28;20023;-65
2021/12/03 08:17:39;;;;;;;6.20;3.47;;;6.10;99.90;;;;;;5047055;28;20083;-65
2021/12/03 08:20:07;;;;;;;6.45;3.55;;;5.20;99.90;;;;;;5051186;28;20036;-65
2021/12/03 08:22:34;;;;;;;5.30;3.70;;;5.60;99.90;;;;;;5051364;28;20055;-65
2021/12/03 08:24:59;;;;;;;3.28;2.88;;;5.50;99.90;;;;;;5049615;28;20531;-65
2021/12/03 08:27:25;;;;;;;3.75;3.30;;;5.30;99.90;;;;;;5051525;28;20121;-64
2021/12/03 08:29:51;;;;;;;3.17;2.97;;;5.10;99.90;;;;;;5051324;28;20391;-65
2021/12/03 08:32:17;;;;;;;5.50;3.45;;;5.70;99.90;;;;;;5043834;28;20048;-65
2021/12/03 08:34:46;;;;;;;4.03;3.72;;;5.60;99.90;;;;;;5050581;28;20029;-65
2021/12/03 08:37:11;;;;;;;5.20;3.88;;;5.70;99.90;;;;;;5050159;28;20059;-65
2021/12/03 08:39:38;;;;;;;7.38;4.35;;;4.90;99.90;;;;;;5051054;28;20083;-64
2021/12/03 08:42:06;;;;;;;4.65;4.10;;;4.50;99.90;;;;;;5051034;28;20071;-64
2021/12/03 08:44:31;;;;;;;5.25;4.00;;;4.00;99.90;;;;;;5046314;28;20071;-65
2021/12/03 08:47:02;;;;;;;6.07;4.10;;;4.70;99.90;;;;;;5049847;28;20525;-65
2021/12/03 08:49:33;;;;;;;5.88;4.65;;;4.10;99.90;;;;;;5050724;28;20522;-65
2021/12/03 08:57:15;;;;;;;5.43;4.13;;;5.50;99.90;;;;;;5047527;28;20407;-65
2021/12/03 08:59:40;;;;;;;4.20;3.80;;;5.20;99.90;;;;;;5050922;28;20075;-65
2021/12/03 09:02:06;;;;;;;9.93;3.95;;;5.30;99.90;;;;;;5050765;28;20514;-64
2021/12/03 09:04:32;;;;;;;5.00;4.15;;;5.40;99.90;;;;;;5031671;28;20036;-65
2021/12/03 09:06:59;;;;;;;5.03;3.85;;;6.00;99.90;;;;;;5050319;28;20060;-65
2021/12/03 09:09:26;;;;;;;5.85;3.90;;;4.40;99.90;;;;;;5050389;28;20026;-64
2021/12/03 09:11:52;;;;;;;6.45;4.18;;;4.60;99.90;;;;;;5031055;28;20032;-65
2021/12/03 09:14:26;;;;;;;6.10;4.00;;;5.30;99.90;;;;;;5030409;28;20017;-65
2021/12/03 09:19:53;;;;;;;4.35;3.95;;;5.70;99.90;;;;;;5019836;28;20033;-65
2021/12/03 09:25:05;;;;;;;5.75;3.28;;;5.80;99.90;;;;;;5049324;28;20481;-65
2021/12/03 09:27:31;;;;;;;3.63;3.33;;;6.70;99.90;;;;;;5053053;28;20029;-65
2021/12/03 09:29:57;;;;;;;5.57;3.13;;;7.00;99.90;;;;;;5052075;28;20028;-65
2021/12/03 09:32:28;;;;;;;4.47;2.83;;;7.30;99.90;;;;;;5054308;28;20051;-65
2021/12/03 09:34:53;;;;;;;5.13;3.17;;;7.80;99.90;;;;;;5052394;28;20017;-65
2021/12/03 09:37:19;;;;;;;4.43;3.13;;;8.60;99.90;;;;;;5051277;28;20412;-65
2021/12/03 09:39:45;;;;;;;4.57;3.17;;;9.80;99.90;;;;;;5053948;28;20471;-66
2021/12/03 09:42:14;;;;;;;4.05;3.10;;;9.80;98.90;;;;;;5053483;28;20052;-65
2021/12/03 09:44:41;;;;;;;4.68;3.03;;;9.90;99.60;;;;;;5053143;28;20032;-65
2021/12/03 09:47:07;;;;;;;3.05;2.50;;;10.00;98.20;;;;;;5053650;28;20521;-65
2021/12/03 09:49:34;;;;;;;2.47;2.20;;;9.90;98.50;;;;;;5049847;28;20111;-65
2021/12/03 09:52:11;;;;;;;2.53;2.33;;;9.70;98.40;;;;;;5053775;28;20483;-65
2021/12/03 09:54:43;;;;;;;4.05;2.40;;;8.30;99.90;;;;;;5052446;28;20091;-65
2021/12/03 09:57:12;;;;;;;;;;;7.80;99.90;;;;;;5053817;28;20014;-65
2021/12/03 10:13:17;;;;;;;5.90;2.95;;;8.50;99.90;;;;;;5051700;28;20021;-66
2021/12/03 10:16:13;;;;;;;3.33;2.67;;;8.10;99.90;;;;;;5050583;28;20426;-65
2021/12/03 10:18:52;;;;;;;3.95;2.70;;;8.20;99.90;;;;;;5053018;28;20471;-65
2021/12/03 10:30:37;;;;;;;3.45;2.85;;;8.60;99.90;;;;;;5054957;28;20071;-69
2021/12/03 10:34:07;;;;;;;4.30;3.22;;;8.20;99.90;;;;;;5052853;28;20049;-69
2021/12/03 10:38:57;;;;;;;4.10;3.10;;;7.20;99.90;;;;;;5052279;28;20391;-69
2021/12/03 10:44:03;;;;;;;8.85;3.17;;;10.00;99.90;;;;;;5033748;28;20112;-69
2021/12/03 11:18:53;;;;;;;5.57;2.80;;;8.90;99.60;;;;;;5092149;28;20481;-63
2021/12/03 12:44:29;;;;;;;2.88;2.17;;;8.90;99.50;;;;;;5090992;28;20455;-63
2021/12/03 13:09:10;;;;;;;2.00;1.85;;;11.00;93.70;;;;;;5083219;28;20046;-64
2021/12/03 13:17:31;;;;;;;2.35;1.60;;;10.60;93.60;;;;;;5093889;28;20039;-70
2021/12/03 14:00:58;;;;;;;4.50;2.05;;;6.50;99.90;;;;;;5079997;28;20031;-64
2021/12/03 14:48:42;;;;;;;27.40;13.35;;;5.40;99.90;;;;;;5092237;28;20424;-64
2021/12/03 14:56:14;;;;;;;8.18;5.22;;;5.60;99.90;;;;;;5092547;28;20394;-65
2021/12/03 15:06:36;;;;;;;7.73;4.67;;;4.70;99.90;;;;;;5090990;28;20481;-65
2021/12/03 15:35:38;;;;;;;3.15;2.08;;;4.40;99.90;;;;;;5090749;28;20032;-67
2021/12/03 15:56:59;;;;;;;4.53;2.08;;;3.50;99.90;;;;;;5071037;28;20494;-63
2021/12/03 16:05:41;;;;;;;5.55;2.30;;;3.70;99.90;;;;;;5086922;28;20089;-64
2021/12/03 16:18:48;;;;;;;7.45;3.67;;;4.20;99.90;;;;;;5071126;28;20040;-67
2021/12/03 16:21:30;;;;;;;10.38;6.28;;;3.70;99.90;;;;;;5072042;28;20119;-63
2021/12/03 16:24:27;;;;;;;;;;;3.50;99.90;;;;;;5053692;28;20024;-64
2021/12/03 16:46:28;;;;;;;8.40;4.60;;;4.00;99.90;;;;;;4992722;28;20575;-69
2021/12/03 16:53:51;;;;;;;10.52;5.50;;;3.20;99.90;;;;;;5094176;28;20103;-68
2021/12/03 16:56:21;;;;;;;11.95;5.03;;;3.70;99.90;;;;;;5093348;28;20031;-68
2021/12/03 16:58:47;;;;;;;7.20;4.10;;;4.00;99.90;;;;;;5084737;22;20064;-68
2021/12/03 17:01:34;;;;;;;15.07;5.43;;;3.20;99.90;;;;;;5046770;28;20490;-69
2021/12/03 17:12:23;;;;;;;6.93;3.28;;;3.00;99.90;;;;;;5054171;28;20397;-68
2021/12/03 17:20:30;;;;;;;6.82;3.30;;;3.50;99.90;;;;;;5053445;28;20507;-67
2021/12/03 17:54:38;;;;;;;3.50;2.55;;;3.30;99.90;;;;;;5052806;28;20064;-71
2021/12/03 17:57:23;;;;;;;4.15;2.85;;;3.10;99.90;;;;;;5052844;28;20560;-63
2021/12/03 17:59:50;;;;;;;3.35;2.53;;;3.00;99.90;;;;;;5052380;28;20077;-65
2021/12/03 18:05:18;;;;;;;5.20;2.83;;;3.50;99.90;;;;;;5053037;28;20036;-69
2021/12/03 18:51:00;;;;;;;52.45;22.48;;;3.20;99.90;;;;;;5032755;28;20036;-64
2021/12/03 18:59:09;;;;;;;8.77;4.88;;;2.80;99.90;;;;;;4998614;28;20029;-74
2021/12/03 19:01:37;;;;;;;5.68;3.33;;;3.80;99.90;;;;;;5053029;28;20099;-67
2021/12/03 19:06:35;;;;;;;102.90;60.45;;;3.10;99.90;;;;;;5051813;28;20509;-66
2021/12/03 19:11:35;;;;;;;11.07;4.60;;;3.40;99.90;;;;;;5051760;28;20533;-66
2021/12/03 19:14:00;;;;;;;8.13;4.55;;;3.20;99.90;;;;;;5043426;28;20037;-69
2021/12/03 19:16:26;;;;;;;7.70;5.65;;;3.50;99.90;;;;;;5048311;28;20375;-71
2021/12/03 19:18:55;;;;;;;11.65;5.03;;;3.40;99.90;;;;;;5050538;28;20071;-70
2021/12/03 19:21:25;;;;;;;10.02;5.97;;;3.50;99.90;;;;;;5049913;28;20520;-74
2021/12/03 19:23:58;;;;;;;10.70;4.70;;;3.60;99.90;;;;;;5052046;28;20721;-75
2021/12/03 19:26:25;;;;;;;12.13;7.97;;;3.70;99.90;;;;;;5045749;28;20025;-75
2021/12/03 19:28:53;;;;;;;8.63;5.60;;;4.50;99.90;;;;;;5051210;28;20057;-76
2021/12/03 19:31:22;;;;;;;7.30;4.75;;;4.50;99.90;;;;;;5052093;28;20056;-75
2021/12/03 19:33:48;;;;;;;6.25;3.97;;;4.80;99.90;;;;;;5041749;28;20104;-75
2021/12/03 19:36:20;;;;;;;8.63;4.30;;;3.80;99.90;;;;;;5030472;28;20105;-75
2021/12/03 19:38:48;;;;;;;6.60;5.10;;;4.00;99.90;;;;;;5033842;28;20039;-74
2021/12/03 19:41:36;;;;;;;4.97;4.18;;;3.70;99.90;;;;;;5051577;28;20071;-76
2021/12/03 19:44:05;;;;;;;5.65;4.00;;;3.60;99.90;;;;;;5051314;28;20029;-72
2021/12/03 19:46:34;;;;;;;5.65;4.25;;;3.40;99.90;;;;;;5050501;28;20036;-75
2021/12/03 19:49:08;;;;;;;6.78;4.38;;;3.70;99.90;;;;;;5050195;28;20453;-75
2021/12/03 19:51:40;;;;;;;4.32;3.83;;;3.50;99.90;;;;;;5049318;28;20033;-74
2021/12/03 19:54:06;;;;;;;;;;;3.40;99.90;;;;;;5031890;28;20057;-75
2021/12/03 19:56:33;;;;;;;8.32;5.50;;;3.50;99.90;;;;;;5041881;28;19939;-75
2021/12/03 19:59:00;;;;;;;8.05;3.78;;;3.70;99.90;;;;;;5049924;28;20107;-74
2021/12/03 20:01:32;;;;;;;5.00;3.60;;;3.50;99.90;;;;;;5051495;28;20053;-74
2021/12/03 20:03:58;;;;;;;3.88;3.17;;;4.40;99.90;;;;;;5051049;28;20031;-74
2021/12/03 20:06:25;;;;;;;5.70;3.38;;;3.50;99.90;;;;;;5045892;28;20124;-74
2021/12/03 20:08:54;;;;;;;6.03;3.72;;;3.60;99.90;;;;;;5051058;28;20027;-74
2021/12/03 20:11:26;;;;;;;4.88;3.42;;;2.40;99.90;;;;;;5031407;28;20029;-73
2021/12/03 20:13:53;;;;;;;5.03;3.37;;;3.90;99.90;;;;;;5051156;28;20478;-73
2021/12/03 20:16:40;;;;;;;6.47;3.38;;;3.60;99.90;;;;;;5050619;28;20521;-73
2021/12/03 20:19:12;;;;;;;4.18;3.25;;;3.90;99.90;;;;;;5050188;28;20463;-74
2021/12/03 20:21:43;;;;;;;5.18;3.50;;;3.40;99.90;;;;;;5051123;28;20434;-74
2021/12/03 20:26:51;;;;;;;5.30;2.90;;;3.60;99.90;;;;;;5049932;28;20120;-74
2021/12/03 20:32:10;;;;;;;5.70;3.15;;;3.90;99.90;;;;;;5046463;28;20387;-68
2021/12/03 20:37:30;;;;;;;3.72;3.25;;;3.20;99.90;;;;;;5049094;28;20051;-69
2021/12/03 20:40:00;;;;;;;3.58;2.85;;;3.90;99.90;;;;;;5030801;28;20029;-66
2021/12/03 20:42:31;;;;;;;6.25;3.83;;;3.50;99.90;;;;;;5013996;28;20075;-67
2021/12/03 21:09:31;;;;;;;4.75;3.20;;;3.90;99.90;;;;;;5051016;28;20079;-72
2021/12/03 21:12:00;;;;;;;3.45;2.88;;;4.40;99.90;;;;;;5050852;28;20033;-69
2021/12/03 21:14:30;;;;;;;3.47;3.17;;;4.10;99.90;;;;;;5050459;28;20023;-70
2021/12/03 21:19:46;;;;;;;4.88;3.20;;;3.70;99.90;;;;;;5046779;28;20455;-68
2021/12/03 21:24:38;;;;;;;4.82;3.22;;;3.40;99.90;;;;;;5051615;28;20021;-70
2021/12/03 21:27:13;;;;;;;3.75;3.40;;;3.60;99.90;;;;;;5055401;28;20506;-68
2021/12/03 21:32:23;;;;;;;5.28;3.28;;;4.10;99.90;;;;;;5051137;28;20025;-70
2021/12/03 21:42:44;;;;;;;3.95;2.78;;;4.40;99.90;;;;;;5069937;28;20064;-69